Time;durP1;ratioP1;P1;durP2;ratioP2;P2;SDS_P1;SDS_P2;PMS_P1;PMS_P2;Temp;Humidity;BMP_temperature;BMP_pressure;BME280_temperature;BME280_humidity;BME280_pressure;Samples;Min_cycle;Max_cycle;Signal;HPM_P1;HPM_P2
2023/10/20 00:00:53;;;;;;;2.17;2.07;;;22.40;44.90;;;;;;4964196;28;20239;-73
2023/10/20 00:03:18;;;;;;;2.80;2.60;;;22.40;44.90;;;;;;4970363;28;20554;-73
2023/10/20 00:05:44;;;;;;;2.20;2.10;;;22.40;45.00;;;;;;4967934;28;20229;-74
2023/10/20 00:08:09;;;;;;;2.30;2.20;;;22.40;44.90;;;;;;4970903;28;20299;-73
2023/10/20 00:10:36;;;;;;;2.00;1.90;;;22.40;44.90;;;;;;4967995;28;20307;-73
2023/10/20 00:13:06;;;;;;;2.07;1.90;;;22.50;45.00;;;;;;4972256;28;20238;-73
2023/10/20 00:15:32;;;;;;;2.10;2.00;;;22.40;44.90;;;;;;4969136;28;20489;-74
2023/10/20 00:17:57;;;;;;;2.40;2.30;;;22.40;44.90;;;;;;4954356;28;20444;-73
2023/10/20 00:20:23;;;;;;;2.03;1.93;;;22.40;45.00;;;;;;4968144;28;20457;-73
2023/10/20 00:22:49;;;;;;;2.17;2.07;;;22.40;44.90;;;;;;4963042;28;20600;-74
2023/10/20 00:25:14;;;;;;;1.97;1.87;;;22.40;45.00;;;;;;4955414;28;20726;-75
2023/10/20 00:27:43;;;;;;;2.30;2.10;;;22.40;45.00;;;;;;4965769;28;20729;-74
2023/10/20 00:30:09;;;;;;;2.10;2.00;;;22.40;44.90;;;;;;4967065;28;20255;-75
2023/10/20 00:32:39;;;;;;;2.63;2.43;;;22.40;45.00;;;;;;4969376;28;20439;-74
2023/10/20 00:35:05;;;;;;;2.20;2.10;;;22.40;45.00;;;;;;4969758;28;20454;-75
2023/10/20 00:37:31;;;;;;;2.17;1.97;;;22.40;45.70;;;;;;4970537;28;20460;-74
2023/10/20 00:39:59;;;;;;;1.93;1.83;;;22.40;45.00;;;;;;4966071;28;20739;-75
2023/10/20 00:42:25;;;;;;;2.23;2.13;;;22.40;45.00;;;;;;4971264;28;20224;-74
2023/10/20 00:44:51;;;;;;;2.10;2.00;;;22.40;45.00;;;;;;4971176;28;20551;-75
2023/10/20 00:47:17;;;;;;;2.20;2.10;;;22.40;45.00;;;;;;4965863;28;20259;-74
2023/10/20 00:49:45;;;;;;;2.57;2.47;;;22.40;45.00;;;;;;4965476;28;20515;-75
2023/10/20 00:52:13;;;;;;;2.47;2.27;;;22.40;45.00;;;;;;4959086;28;20248;-74
2023/10/20 00:54:38;;;;;;;2.07;1.97;;;22.40;45.00;;;;;;4967729;28;21053;-75
2023/10/20 00:57:04;;;;;;;2.10;2.00;;;22.40;45.00;;;;;;4973425;28;20446;-74
2023/10/20 00:59:30;;;;;;;2.30;2.10;;;22.40;45.00;;;;;;4966116;28;20221;-75
2023/10/20 01:01:55;;;;;;;2.07;1.97;;;22.40;45.10;;;;;;4971058;28;20228;-75
2023/10/20 01:04:24;;;;;;;3.10;1.90;;;22.40;45.00;;;;;;4969254;28;20672;-75
2023/10/20 01:06:50;;;;;;;2.00;1.90;;;22.40;45.00;;;;;;4972805;28;20224;-72
2023/10/20 01:09:26;;;;;;;1.80;1.70;;;22.40;45.00;;;;;;4964142;28;20481;-72
2023/10/20 01:11:52;;;;;;;2.57;2.47;;;22.40;45.00;;;;;;4959558;28;26713;-73
2023/10/20 01:14:17;;;;;;;1.90;1.80;;;22.40;45.00;;;;;;4959883;28;20471;-72
2023/10/20 01:16:43;;;;;;;2.10;2.00;;;22.40;45.00;;;;;;4967542;28;20450;-73
2023/10/20 01:19:09;;;;;;;2.27;2.17;;;22.40;45.00;;;;;;4967536;28;20235;-72
2023/10/20 01:21:35;;;;;;;2.10;2.00;;;22.40;45.00;;;;;;4971112;28;20212;-72
2023/10/20 01:24:02;;;;;;;2.50;2.30;;;22.40;45.00;;;;;;4971669;28;20470;-71
2023/10/20 01:26:29;;;;;;;2.07;1.97;;;22.40;45.00;;;;;;4955767;28;20233;-72
2023/10/20 01:28:55;;;;;;;2.30;2.20;;;22.40;45.00;;;;;;4967254;28;20469;-72
2023/10/20 01:31:20;;;;;;;2.20;2.10;;;22.40;45.00;;;;;;4972468;28;20462;-73
2023/10/20 01:33:46;;;;;;;1.90;1.80;;;22.40;45.10;;;;;;4974651;28;20296;-74
2023/10/20 01:36:11;;;;;;;2.07;1.97;;;22.40;45.00;;;;;;4974064;28;20223;-72
2023/10/20 01:38:37;;;;;;;2.20;2.10;;;22.40;45.00;;;;;;4976573;28;20227;-72
2023/10/20 01:41:02;;;;;;;1.97;1.87;;;22.40;45.00;;;;;;4975523;28;20238;-72
2023/10/20 01:43:28;;;;;;;1.87;1.77;;;22.40;45.00;;;;;;4977124;28;20224;-74
2023/10/20 01:45:54;;;;;;;2.07;1.97;;;22.40;45.00;;;;;;4974458;28;20277;-72
2023/10/20 01:48:20;;;;;;;1.90;1.80;;;22.40;45.10;;;;;;4972072;28;20225;-72
2023/10/20 01:50:45;;;;;;;1.80;1.70;;;22.40;45.10;;;;;;4972990;28;20458;-72
2023/10/20 01:53:11;;;;;;;1.97;1.87;;;22.40;45.00;;;;;;4958920;28;20229;-73
2023/10/20 01:55:39;;;;;;;1.90;1.80;;;22.40;45.10;;;;;;4971435;28;20223;-72
2023/10/20 01:58:05;;;;;;;1.93;1.83;;;22.40;45.10;;;;;;4973595;28;20454;-72
2023/10/20 02:00:31;;;;;;;2.00;1.90;;;22.40;45.00;;;;;;4974056;28;20568;-72
2023/10/20 02:02:57;;;;;;;2.10;2.00;;;22.40;45.10;;;;;;4976895;28;20300;-71
2023/10/20 02:05:25;;;;;;;1.77;1.67;;;22.40;45.00;;;;;;4970627;28;20468;-72
2023/10/20 02:07:51;;;;;;;2.00;1.90;;;22.40;45.10;;;;;;4963065;28;20458;-73
2023/10/20 02:10:17;;;;;;;2.10;2.00;;;22.40;45.10;;;;;;4965289;28;20449;-73
2023/10/20 02:12:42;;;;;;;2.20;2.10;;;22.40;45.80;;;;;;4976859;28;20212;-72
2023/10/20 02:15:08;;;;;;;2.20;2.10;;;22.40;45.10;;;;;;4973996;28;20220;-75
2023/10/20 02:17:37;;;;;;;2.33;2.23;;;22.40;45.10;;;;;;4969571;28;20633;-75
2023/10/20 02:20:03;;;;;;;2.10;1.90;;;22.40;45.10;;;;;;4962972;28;20257;-74
2023/10/20 02:22:28;;;;;;;1.90;1.80;;;22.40;45.10;;;;;;4976720;28;20798;-74
2023/10/20 02:24:54;;;;;;;1.97;1.87;;;22.40;45.00;;;;;;4977560;28;20474;-74
2023/10/20 02:27:20;;;;;;;1.87;1.77;;;22.40;45.00;;;;;;4975584;28;20238;-75
2023/10/20 02:29:45;;;;;;;1.80;1.70;;;22.40;45.10;;;;;;4976822;28;20239;-74
2023/10/20 02:32:12;;;;;;;2.17;2.00;;;22.40;45.10;;;;;;4978824;28;20229;-74
2023/10/20 02:34:37;;;;;;;1.90;1.80;;;22.40;45.10;;;;;;4973707;28;20577;-74
2023/10/20 02:37:03;;;;;;;2.20;2.10;;;22.40;45.10;;;;;;4976843;28;20472;-74
2023/10/20 02:39:29;;;;;;;2.00;1.90;;;22.40;45.10;;;;;;4975825;28;20231;-74
2023/10/20 02:41:55;;;;;;;2.00;1.90;;;22.40;45.10;;;;;;4967965;28;20236;-75
2023/10/20 02:44:22;;;;;;;1.90;1.80;;;22.40;45.10;;;;;;4961329;28;20233;-75
2023/10/20 02:46:47;;;;;;;2.10;2.00;;;22.40;45.10;;;;;;4956921;28;21112;-75
2023/10/20 02:49:13;;;;;;;2.10;2.00;;;22.40;45.10;;;;;;4957871;28;20467;-77
2023/10/20 02:51:39;;;;;;;2.00;1.90;;;22.30;45.00;;;;;;4965616;28;20228;-77
2023/10/20 02:54:05;;;;;;;1.97;1.87;;;22.30;44.90;;;;;;4956967;28;20708;-75
2023/10/20 02:56:30;;;;;;;2.00;1.90;;;22.40;45.10;;;;;;4968470;28;20228;-76
2023/10/20 02:58:56;;;;;;;1.80;1.70;;;22.40;45.10;;;;;;4967316;28;20955;-77
2023/10/20 03:01:21;;;;;;;1.77;1.67;;;22.40;45.10;;;;;;4967619;28;20228;-77
2023/10/20 03:03:47;;;;;;;1.87;1.77;;;22.40;45.10;;;;;;4971320;28;20231;-77
2023/10/20 03:06:13;;;;;;;1.87;1.77;;;22.30;45.00;;;;;;4963926;28;20225;-76
2023/10/20 03:08:39;;;;;;;1.80;1.70;;;22.30;45.00;;;;;;4965195;28;20220;-77
2023/10/20 03:11:06;;;;;;;1.70;1.60;;;22.30;45.00;;;;;;4964556;28;20219;-75
2023/10/20 03:13:32;;;;;;;1.80;1.70;;;22.40;45.10;;;;;;4972294;28;20461;-74
2023/10/20 03:15:57;;;;;;;1.80;1.70;;;22.40;45.10;;;;;;4971550;28;20818;-77
2023/10/20 03:18:23;;;;;;;1.90;1.80;;;22.30;45.00;;;;;;4971991;28;20225;-77
2023/10/20 03:20:49;;;;;;;1.60;1.50;;;22.30;45.00;;;;;;4965887;28;20221;-77
2023/10/20 03:23:16;;;;;;;1.73;1.63;;;22.30;45.00;;;;;;4965009;28;20244;-77
2023/10/20 03:25:42;;;;;;;1.70;1.60;;;22.30;45.00;;;;;;4969854;28;20537;-74
2023/10/20 03:28:08;;;;;;;1.83;1.73;;;22.30;45.00;;;;;;4972021;28;20447;-74
2023/10/20 03:30:41;;;;;;;1.80;1.70;;;22.30;45.00;;;;;;4970242;28;20960;-74
2023/10/20 03:33:07;;;;;;;1.77;1.67;;;22.30;45.00;;;;;;4970682;28;20299;-74
2023/10/20 03:35:33;;;;;;;1.87;1.77;;;22.30;45.00;;;;;;4967651;28;20446;-74
2023/10/20 03:38:00;;;;;;;1.77;1.67;;;22.30;45.00;;;;;;4972933;28;20443;-74
2023/10/20 03:40:42;;;;;;;1.80;1.70;;;22.30;45.10;;;;;;4959231;28;20232;-74
2023/10/20 03:43:08;;;;;;;1.60;1.50;;;22.40;45.10;;;;;;4966547;28;20485;-74
2023/10/20 03:45:48;;;;;;;1.73;1.63;;;22.40;45.10;;;;;;4969728;28;20459;-74
2023/10/20 03:48:13;;;;;;;1.70;1.60;;;22.30;45.10;;;;;;4970974;28;20909;-74
2023/10/20 03:50:43;;;;;;;1.80;1.70;;;22.30;45.00;;;;;;4970961;28;20545;-73
2023/10/20 03:53:12;;;;;;;1.70;1.60;;;22.30;45.00;;;;;;4971436;28;20223;-74
2023/10/20 03:55:37;;;;;;;1.60;1.50;;;22.40;45.10;;;;;;4965325;28;20882;-72
2023/10/20 03:58:03;;;;;;;1.70;1.60;;;22.30;45.00;;;;;;4965333;28;20443;-72
2023/10/20 04:00:29;;;;;;;1.50;1.40;;;22.30;45.00;;;;;;4970697;28;20230;-72
2023/10/20 04:02:56;;;;;;;1.50;1.40;;;22.40;45.20;;;;;;4971478;28;20221;-71
2023/10/20 04:05:22;;;;;;;1.37;1.27;;;22.30;45.00;;;;;;4973669;28;20481;-72
2023/10/20 04:07:48;;;;;;;1.50;1.40;;;22.30;45.10;;;;;;4973765;28;20458;-72
2023/10/20 04:10:14;;;;;;;1.30;1.20;;;22.30;45.10;;;;;;4968706;28;20468;-72
2023/10/20 04:12:41;;;;;;;1.40;1.30;;;22.30;45.10;;;;;;4974333;28;20224;-73
2023/10/20 04:15:19;;;;;;;1.50;1.40;;;22.30;45.10;;;;;;4958890;28;20451;-72
2023/10/20 04:17:46;;;;;;;1.67;1.57;;;22.40;45.20;;;;;;4970269;28;20458;-73
2023/10/20 04:20:18;;;;;;;1.30;1.20;;;22.30;45.10;;;;;;4970854;28;20455;-73
2023/10/20 04:22:47;;;;;;;1.67;1.57;;;22.30;45.10;;;;;;4972954;28;20509;-73
2023/10/20 04:25:15;;;;;;;1.30;1.20;;;22.30;45.10;;;;;;4967786;28;20447;-72
2023/10/20 04:27:51;;;;;;;1.60;1.50;;;22.30;45.10;;;;;;4967444;28;20556;-74
2023/10/20 04:54:51;;;;;;;1.20;1.10;;;22.40;45.00;;;;;;4957886;28;20521;-72
2023/10/20 04:57:47;;;;;;;1.23;1.13;;;22.30;44.90;;;;;;4960564;28;20516;-72
2023/10/20 05:03:30;;;;;;;1.50;1.40;;;22.40;45.00;;;;;;4969691;28;20451;-73
2023/10/20 05:05:43;;;;;;;1.30;1.20;;;22.40;45.00;;;;;;4958316;28;20473;-73
2023/10/20 05:10:37;;;;;;;1.20;1.10;;;22.40;45.00;;;;;;4963692;28;20597;-73
2023/10/20 05:13:02;;;;;;;1.50;1.40;;;22.40;45.00;;;;;;4966998;28;20941;-73
2023/10/20 05:15:32;;;;;;;1.30;1.20;;;22.40;45.00;;;;;;4970984;28;20234;-74
2023/10/20 05:17:57;;;;;;;1.20;1.10;;;22.40;45.10;;;;;;4965013;28;20221;-73
2023/10/20 05:20:24;;;;;;;1.20;1.10;;;22.40;45.10;;;;;;4961633;28;20435;-73
2023/10/20 05:22:50;;;;;;;1.53;1.43;;;22.40;45.10;;;;;;4972971;28;20235;-73
2023/10/20 05:25:16;;;;;;;1.30;1.20;;;22.40;45.10;;;;;;4963995;28;21036;-73
2023/10/20 05:27:42;;;;;;;1.40;1.30;;;22.40;45.10;;;;;;4973969;28;20447;-73
2023/10/20 05:30:08;;;;;;;1.50;1.40;;;22.40;45.10;;;;;;4976431;28;20220;-73
2023/10/20 05:32:35;;;;;;;1.30;1.20;;;22.40;45.10;;;;;;4964313;28;20431;-73
2023/10/20 05:35:01;;;;;;;2.30;1.40;;;22.40;45.10;;;;;;4970135;28;20251;-72
2023/10/20 05:37:27;;;;;;;1.47;1.37;;;22.40;45.10;;;;;;4972214;28;20454;-75
2023/10/20 05:39:53;;;;;;;1.50;1.40;;;22.40;45.10;;;;;;4965901;28;20438;-73
2023/10/20 05:42:19;;;;;;;1.40;1.30;;;22.40;45.10;;;;;;4966856;28;20216;-74
2023/10/20 05:45:03;;;;;;;1.40;1.30;;;22.40;45.10;;;;;;4966608;28;20238;-72
2023/10/20 05:47:31;;;;;;;1.20;1.10;;;22.40;45.10;;;;;;4972856;28;20329;-71
2023/10/20 05:49:59;;;;;;;1.30;1.20;;;22.40;45.10;;;;;;4964330;28;20482;-71
2023/10/20 05:52:24;;;;;;;1.40;1.30;;;22.40;45.20;;;;;;4975765;28;20439;-71
2023/10/20 05:54:50;;;;;;;1.37;1.27;;;22.40;45.10;;;;;;4960611;28;20576;-71
2023/10/20 05:57:16;;;;;;;1.40;1.30;;;22.40;45.20;;;;;;4960312;28;20230;-71
2023/10/20 05:59:42;;;;;;;1.30;1.20;;;22.40;45.10;;;;;;4963811;28;20231;-71
2023/10/20 06:02:08;;;;;;;1.30;1.20;;;22.40;45.20;;;;;;4971182;28;20458;-72
2023/10/20 06:04:34;;;;;;;1.37;1.27;;;22.40;45.10;;;;;;4972784;28;20516;-72
2023/10/20 06:07:01;;;;;;;1.30;1.20;;;22.40;45.10;;;;;;4973726;28;20714;-72
2023/10/20 06:09:27;;;;;;;1.50;1.40;;;22.40;45.20;;;;;;4951120;28;20452;-72
2023/10/20 06:11:53;;;;;;;1.40;1.30;;;22.40;45.90;;;;;;4972041;28;20984;-71
2023/10/20 06:14:25;;;;;;;1.40;1.30;;;22.40;45.20;;;;;;4967793;28;20466;-72
2023/10/20 06:16:51;;;;;;;1.30;1.20;;;22.40;45.20;;;;;;4976115;28;20598;-72
2023/10/20 06:19:17;;;;;;;1.30;1.20;;;22.40;45.20;;;;;;4976513;28;20510;-72
2023/10/20 06:21:43;;;;;;;1.30;1.20;;;22.40;45.10;;;;;;4974228;28;20968;-72
2023/10/20 06:24:09;;;;;;;1.30;1.20;;;22.40;45.20;;;;;;4975618;28;20241;-72
2023/10/20 06:26:35;;;;;;;1.93;1.20;;;22.40;45.20;;;;;;4969336;28;20241;-72
2023/10/20 06:29:01;;;;;;;1.40;1.30;;;22.40;45.20;;;;;;4979868;28;20498;-72
2023/10/20 06:31:28;;;;;;;1.30;1.20;;;22.40;45.20;;;;;;4972502;28;20343;-72
2023/10/20 06:36:44;;;;;;;1.40;1.30;;;22.40;45.20;;;;;;4976203;28;20545;-71
2023/10/20 06:39:13;;;;;;;1.30;1.20;;;22.40;45.20;;;;;;4969595;28;20466;-72
2023/10/20 06:41:39;;;;;;;1.50;1.40;;;22.40;45.60;;;;;;4974726;28;21003;-72
2023/10/20 06:44:05;;;;;;;1.10;1.10;;;22.40;45.20;;;;;;4974553;28;20442;-72
2023/10/20 06:46:30;;;;;;;3.03;1.10;;;22.40;45.30;;;;;;4972810;28;20707;-72
2023/10/20 06:48:56;;;;;;;1.57;1.47;;;22.40;45.20;;;;;;4972776;28;20621;-72
2023/10/20 06:51:23;;;;;;;1.40;1.30;;;22.40;45.30;;;;;;4962300;28;20232;-72
2023/10/20 06:53:49;;;;;;;1.17;1.07;;;22.40;45.30;;;;;;4975266;28;20647;-72
2023/10/20 06:56:15;;;;;;;1.43;1.10;;;22.40;45.30;;;;;;4965094;28;20455;-72
2023/10/20 06:58:41;;;;;;;1.57;1.20;;;22.40;45.30;;;;;;4968328;28;20617;-71
2023/10/20 07:01:06;;;;;;;1.40;1.30;;;22.40;45.30;;;;;;4966118;28;20225;-72
2023/10/20 07:03:32;;;;;;;2.80;1.37;;;22.40;45.20;;;;;;4973361;28;20956;-72
2023/10/20 07:06:01;;;;;;;1.27;1.17;;;22.40;45.30;;;;;;4946242;28;20233;-73
2023/10/20 07:08:26;;;;;;;1.23;1.13;;;22.40;45.30;;;;;;4964757;28;20688;-73
2023/10/20 07:10:52;;;;;;;1.30;1.20;;;22.40;45.30;;;;;;4988527;28;20469;-73
2023/10/20 07:13:18;;;;;;;1.27;1.17;;;22.40;45.30;;;;;;4971670;28;20231;-73
2023/10/20 07:15:44;;;;;;;1.40;1.30;;;22.40;45.30;;;;;;4969707;28;20216;-73
2023/10/20 07:18:12;;;;;;;1.30;1.20;;;22.40;46.10;;;;;;4970817;28;20295;-72
2023/10/20 07:20:38;;;;;;;1.33;1.23;;;22.40;45.30;;;;;;4966617;28;20462;-73
2023/10/20 07:23:05;;;;;;;1.20;1.10;;;22.40;45.40;;;;;;4964979;28;20458;-73
2023/10/20 07:25:31;;;;;;;1.30;1.20;;;22.40;45.30;;;;;;4971854;28;20245;-71
2023/10/20 07:27:57;;;;;;;1.40;1.30;;;22.40;45.30;;;;;;4971629;28;20447;-71
2023/10/20 07:30:23;;;;;;;1.50;1.20;;;22.40;45.40;;;;;;4972890;28;20320;-71
2023/10/20 07:32:51;;;;;;;1.13;1.03;;;22.40;45.30;;;;;;4970532;28;20486;-71
2023/10/20 07:35:17;;;;;;;1.20;1.10;;;22.40;45.40;;;;;;4960622;28;20439;-72
2023/10/20 07:37:44;;;;;;;1.20;1.10;;;22.40;45.40;;;;;;4977112;28;20477;-72
2023/10/20 07:40:10;;;;;;;1.50;1.40;;;22.40;45.40;;;;;;4972839;28;20481;-72
2023/10/20 07:42:38;;;;;;;1.37;1.27;;;22.40;45.40;;;;;;4972251;28;20463;-71
2023/10/20 07:45:06;;;;;;;1.27;1.17;;;22.40;45.40;;;;;;4970951;28;20519;-71
2023/10/20 07:47:32;;;;;;;1.50;1.40;;;22.40;45.40;;;;;;4973456;28;20455;-71
2023/10/20 07:49:58;;;;;;;1.30;1.20;;;22.40;45.40;;;;;;4963452;28;20430;-71
2023/10/20 07:52:24;;;;;;;1.20;1.10;;;22.40;45.40;;;;;;4956774;28;20311;-72
2023/10/20 07:54:50;;;;;;;1.37;1.27;;;22.40;45.50;;;;;;4973076;28;20292;-72
2023/10/20 07:57:17;;;;;;;1.20;1.10;;;22.40;45.40;;;;;;4974434;28;20466;-72
2023/10/20 07:59:43;;;;;;;1.37;1.27;;;22.40;45.50;;;;;;4971847;28;20280;-71
2023/10/20 08:02:09;;;;;;;1.30;1.20;;;22.40;45.40;;;;;;4973389;28;20477;-71
2023/10/20 08:04:36;;;;;;;1.70;1.40;;;22.40;45.50;;;;;;4972131;28;20248;-72
2023/10/20 08:07:06;;;;;;;1.17;1.07;;;22.40;45.40;;;;;;4974647;28;20937;-72
2023/10/20 08:09:32;;;;;;;1.30;1.20;;;22.40;45.50;;;;;;4952688;28;20478;-71
2023/10/20 08:11:58;;;;;;;1.50;1.40;;;22.40;45.40;;;;;;4962849;28;20463;-71
2023/10/20 08:14:26;;;;;;;1.23;1.13;;;22.40;45.50;;;;;;4966481;28;20598;-73
2023/10/20 08:16:52;;;;;;;1.43;1.33;;;22.40;45.50;;;;;;4969010;28;20467;-73
2023/10/20 08:19:17;;;;;;;2.07;1.27;;;22.40;45.50;;;;;;4974596;28;20847;-73
2023/10/20 08:21:43;;;;;;;1.40;1.30;;;22.40;45.60;;;;;;4973475;28;20457;-74
2023/10/20 08:24:10;;;;;;;1.43;1.20;;;22.40;45.50;;;;;;4972432;28;20250;-74
2023/10/20 08:26:36;;;;;;;1.97;1.43;;;22.40;45.50;;;;;;4972345;28;20217;-74
2023/10/20 08:29:02;;;;;;;1.40;1.27;;;22.40;45.50;;;;;;4970499;28;20493;-76
2023/10/20 08:31:28;;;;;;;1.93;1.37;;;22.40;45.60;;;;;;4968181;28;20899;-74
2023/10/20 08:33:53;;;;;;;1.30;1.20;;;22.40;45.60;;;;;;4965038;28;20465;-74
2023/10/20 08:36:21;;;;;;;1.47;1.20;;;22.40;45.60;;;;;;4961891;28;20821;-72
2023/10/20 08:38:51;;;;;;;1.37;1.27;;;22.40;45.60;;;;;;4973167;28;20655;-72
2023/10/20 08:41:21;;;;;;;1.40;1.30;;;22.40;45.60;;;;;;4970919;28;20478;-72
2023/10/20 08:43:48;;;;;;;1.23;1.13;;;22.40;45.60;;;;;;4971854;28;20466;-71
2023/10/20 08:46:16;;;;;;;1.50;1.40;;;22.40;45.60;;;;;;4971263;28;20539;-71
2023/10/20 08:48:42;;;;;;;1.47;1.37;;;22.40;45.60;;;;;;4964433;28;21538;-71
2023/10/20 08:51:10;;;;;;;1.20;1.10;;;22.40;45.60;;;;;;4969971;28;20549;-72
2023/10/20 08:53:36;;;;;;;1.30;1.20;;;22.40;45.60;;;;;;4969768;28;21048;-71
2023/10/20 08:56:04;;;;;;;1.40;1.30;;;22.40;45.60;;;;;;4971769;28;20827;-72
2023/10/20 08:58:30;;;;;;;1.40;1.30;;;22.40;45.60;;;;;;4974666;28;20478;-70
2023/10/20 09:00:57;;;;;;;1.20;1.10;;;22.40;45.70;;;;;;4971713;28;20498;-70
2023/10/20 09:03:25;;;;;;;2.13;1.90;;;22.40;45.70;;;;;;4971551;28;20454;-70
2023/10/20 09:05:52;;;;;;;1.40;1.20;;;22.40;45.70;;;;;;4968411;28;20506;-71
2023/10/20 09:08:17;;;;;;;1.37;1.27;;;22.40;45.80;;;;;;4972454;28;20557;-71
2023/10/20 09:10:45;;;;;;;1.37;1.27;;;22.40;45.70;;;;;;4970088;28;20981;-70
2023/10/20 09:13:11;;;;;;;1.37;1.27;;;22.40;45.80;;;;;;4967807;28;21335;-71
2023/10/20 09:15:37;;;;;;;1.20;1.10;;;22.40;45.80;;;;;;4965474;28;20548;-73
2023/10/20 09:18:07;;;;;;;1.30;1.20;;;22.40;45.80;;;;;;4966872;28;21098;-73
2023/10/20 09:20:32;;;;;;;3.00;1.30;;;22.40;45.80;;;;;;4967080;28;20648;-69
2023/10/20 09:22:58;;;;;;;1.40;1.10;;;22.40;45.80;;;;;;4967382;28;20565;-70
2023/10/20 09:25:23;;;;;;;1.43;1.27;;;22.40;45.80;;;;;;4966445;28;20637;-73
2023/10/20 09:27:49;;;;;;;1.30;1.20;;;22.40;45.80;;;;;;4970116;28;20584;-73
2023/10/20 09:30:15;;;;;;;1.40;1.30;;;22.40;45.80;;;;;;4969604;28;20249;-73
2023/10/20 09:32:40;;;;;;;1.33;1.10;;;22.40;45.80;;;;;;4974397;28;20299;-73
2023/10/20 09:35:06;;;;;;;1.40;1.30;;;22.40;45.80;;;;;;4969633;28;20228;-73
2023/10/20 09:37:38;;;;;;;1.43;1.33;;;22.40;45.80;;;;;;4972831;28;20227;-73
2023/10/20 09:40:07;;;;;;;1.40;1.30;;;22.40;45.80;;;;;;4965080;28;20462;-74
2023/10/20 09:42:45;;;;;;;1.27;1.17;;;22.40;45.80;;;;;;4968932;28;20462;-74
2023/10/20 09:45:15;;;;;;;1.30;1.20;;;22.40;45.80;;;;;;4967556;28;20458;-73
2023/10/20 09:47:43;;;;;;;1.40;1.30;;;22.40;45.90;;;;;;4965787;28;20961;-74
2023/10/20 09:50:11;;;;;;;1.30;1.20;;;22.40;45.80;;;;;;4963443;28;20475;-73
2023/10/20 09:52:39;;;;;;;1.30;1.20;;;22.40;45.90;;;;;;4968046;28;20536;-74
2023/10/20 09:55:07;;;;;;;1.90;1.30;;;22.40;45.80;;;;;;4971154;28;20482;-73
2023/10/20 09:57:33;;;;;;;1.20;1.10;;;22.40;45.80;;;;;;4973897;28;20825;-73
2023/10/20 10:00:07;;;;;;;1.60;1.50;;;22.40;45.80;;;;;;4973945;28;20493;-72
2023/10/20 10:02:32;;;;;;;1.80;1.33;;;22.40;46.60;;;;;;4966445;28;20977;-73
2023/10/20 10:04:58;;;;;;;1.30;1.20;;;22.40;46.00;;;;;;4963700;28;20474;-73
2023/10/20 10:07:33;;;;;;;1.40;1.30;;;22.40;45.90;;;;;;4966979;28;20256;-73
2023/10/20 10:09:59;;;;;;;1.20;1.10;;;22.40;45.90;;;;;;4968749;28;20230;-73
2023/10/20 10:12:30;;;;;;;1.30;1.20;;;22.40;46.00;;;;;;4962396;28;20443;-74
2023/10/20 10:15:07;;;;;;;1.50;1.40;;;22.30;45.80;;;;;;4965616;28;20476;-73
2023/10/20 10:17:48;;;;;;;1.37;1.27;;;22.40;45.90;;;;;;4965067;28;20465;-74
2023/10/20 10:20:25;;;;;;;1.30;1.20;;;22.40;45.90;;;;;;4963767;28;20537;-72
2023/10/20 10:23:04;;;;;;;1.53;1.43;;;22.40;46.00;;;;;;4969478;28;20477;-72
2023/10/20 10:25:37;;;;;;;2.40;1.37;;;22.40;46.00;;;;;;4968766;28;20478;-73
2023/10/20 10:28:12;;;;;;;1.40;1.30;;;22.30;46.00;;;;;;4969174;28;20450;-72
2023/10/20 10:30:38;;;;;;;1.73;1.13;;;22.30;46.00;;;;;;4966015;28;20469;-72
2023/10/20 10:33:09;;;;;;;1.27;1.17;;;22.30;45.90;;;;;;4972911;28;20465;-73
2023/10/20 10:35:38;;;;;;;1.43;1.30;;;22.30;45.90;;;;;;4963507;28;20500;-73
2023/10/20 10:38:19;;;;;;;1.30;1.20;;;22.30;45.90;;;;;;4984025;28;20454;-73
2023/10/20 10:40:45;;;;;;;1.30;1.20;;;22.30;46.00;;;;;;4966759;28;20447;-73
2023/10/20 10:43:15;;;;;;;1.20;1.10;;;22.30;46.00;;;;;;4954503;28;20475;-73
2023/10/20 10:45:42;;;;;;;1.33;1.00;;;22.30;46.00;;;;;;4966240;28;20801;-74
2023/10/20 10:48:09;;;;;;;1.37;1.03;;;22.30;46.00;;;;;;4970259;28;20462;-74
2023/10/20 10:50:42;;;;;;;1.53;1.23;;;22.30;46.00;;;;;;4972046;28;20973;-74
2023/10/20 10:53:09;;;;;;;1.43;1.33;;;22.30;46.00;;;;;;4975231;28;20458;-75
2023/10/20 10:55:38;;;;;;;1.30;1.20;;;22.30;46.00;;;;;;4973069;28;20819;-76
2023/10/20 10:58:14;;;;;;;1.30;1.20;;;22.30;46.00;;;;;;4951119;28;20563;-75
2023/10/20 11:00:44;;;;;;;1.20;1.10;;;22.30;46.00;;;;;;4949066;28;21001;-76
2023/10/20 11:03:10;;;;;;;1.20;1.10;;;22.30;46.00;;;;;;4958865;28;20680;-76
2023/10/20 11:05:36;;;;;;;1.60;1.30;;;22.30;45.90;;;;;;4963636;28;20709;-73
2023/10/20 11:08:04;;;;;;;1.47;1.37;;;22.30;46.00;;;;;;4978449;28;20263;-74
2023/10/20 11:10:33;;;;;;;2.90;1.43;;;22.30;46.00;;;;;;4969750;28;20435;-74
2023/10/20 11:12:59;;;;;;;1.60;1.50;;;22.30;46.00;;;;;;4974682;28;20446;-74
2023/10/20 11:15:28;;;;;;;1.50;1.40;;;22.30;46.00;;;;;;4973101;28;20537;-74
2023/10/20 11:18:01;;;;;;;1.47;1.37;;;22.30;46.00;;;;;;4974836;28;20816;-74
2023/10/20 11:20:28;;;;;;;1.47;1.37;;;22.30;46.00;;;;;;4975738;28;20434;-74
2023/10/20 11:22:56;;;;;;;1.07;1.00;;;22.30;46.00;;;;;;4974692;28;20489;-74
2023/10/20 11:25:22;;;;;;;1.20;1.10;;;22.30;46.00;;;;;;4971586;28;20790;-74
2023/10/20 11:27:55;;;;;;;1.80;1.40;;;22.30;46.00;;;;;;4964291;28;20818;-74
2023/10/20 11:30:37;;;;;;;1.40;1.30;;;22.30;46.00;;;;;;4974589;28;20466;-74
2023/10/20 11:33:05;;;;;;;1.43;1.30;;;22.30;46.00;;;;;;4974977;28;20469;-74
2023/10/20 11:35:31;;;;;;;1.50;1.40;;;22.30;46.00;;;;;;4969176;28;20450;-74
2023/10/20 11:37:58;;;;;;;1.50;1.40;;;22.30;46.00;;;;;;4990705;28;20452;-74
2023/10/20 11:40:28;;;;;;;1.40;1.30;;;22.30;46.00;;;;;;4971993;28;20307;-74
2023/10/20 11:42:54;;;;;;;1.70;1.40;;;22.30;46.00;;;;;;4973606;28;21370;-75
2023/10/20 11:45:22;;;;;;;1.50;1.40;;;22.30;46.00;;;;;;4970368;28;20458;-74
2023/10/20 11:47:48;;;;;;;1.27;1.17;;;22.30;46.10;;;;;;4976093;28;20458;-74
2023/10/20 11:50:15;;;;;;;1.20;1.10;;;22.30;46.10;;;;;;4960153;28;20471;-75
2023/10/20 11:52:42;;;;;;;1.20;1.10;;;22.30;46.10;;;;;;4974629;28;20247;-74
2023/10/20 11:55:09;;;;;;;1.43;1.33;;;22.30;46.10;;;;;;4966264;28;20474;-77
2023/10/20 11:57:35;;;;;;;1.37;1.27;;;22.30;46.10;;;;;;4967114;28;20463;-75
2023/10/20 12:00:09;;;;;;;1.40;1.30;;;22.30;46.10;;;;;;4964969;28;20538;-74
2023/10/20 12:02:35;;;;;;;1.37;1.27;;;22.30;46.10;;;;;;4977952;28;21055;-74
2023/10/20 12:05:01;;;;;;;1.30;1.20;;;22.30;46.10;;;;;;4977170;28;20489;-78
2023/10/20 12:07:27;;;;;;;1.37;1.27;;;22.30;46.10;;;;;;4972933;28;21109;-78
2023/10/20 12:09:53;;;;;;;1.50;1.40;;;22.30;46.10;;;;;;4950580;28;21665;-78
2023/10/20 12:12:19;;;;;;;1.60;1.50;;;22.30;46.10;;;;;;4958613;28;20469;-78
2023/10/20 12:14:46;;;;;;;1.30;1.20;;;22.30;46.10;;;;;;4955878;28;20234;-77
2023/10/20 12:17:11;;;;;;;1.40;1.30;;;22.30;46.10;;;;;;4964602;28;20441;-80
2023/10/20 12:19:37;;;;;;;1.83;1.13;;;22.30;46.40;;;;;;4967081;28;20576;-81
2023/10/20 12:22:03;;;;;;;4.43;1.50;;;22.30;46.10;;;;;;4976029;28;20225;-80
2023/10/20 12:24:28;;;;;;;1.40;1.30;;;22.30;46.10;;;;;;4961433;28;20481;-81
2023/10/20 12:26:55;;;;;;;1.60;1.50;;;22.30;46.20;;;;;;4975382;28;20227;-82
2023/10/20 12:29:22;;;;;;;1.60;1.50;;;22.30;46.20;;;;;;4969301;28;20303;-81
2023/10/20 12:31:48;;;;;;;1.50;1.40;;;22.30;46.10;;;;;;4976048;28;20999;-81
2023/10/20 12:34:14;;;;;;;2.37;1.27;;;22.30;46.20;;;;;;4969210;28;20467;-81
2023/10/20 12:36:42;;;;;;;1.00;1.00;;;22.30;46.20;;;;;;4970886;28;21318;-82
2023/10/20 12:39:09;;;;;;;1.40;1.30;;;22.30;46.20;;;;;;4966049;28;20797;-79
2023/10/20 12:41:35;;;;;;;1.33;1.23;;;22.30;46.20;;;;;;4972463;28;20518;-81
2023/10/20 12:44:02;;;;;;;1.80;1.70;;;22.30;46.20;;;;;;4972654;28;20966;-81
2023/10/20 12:46:28;;;;;;;1.40;1.30;;;22.30;46.60;;;;;;4969465;28;20489;-81
2023/10/20 12:48:54;;;;;;;1.50;1.40;;;22.30;46.20;;;;;;4965796;28;21030;-79
2023/10/20 12:51:19;;;;;;;1.50;1.40;;;22.40;46.40;;;;;;4967739;28;20529;-80
2023/10/20 12:53:45;;;;;;;1.37;1.27;;;22.30;46.20;;;;;;4965938;28;20232;-81
2023/10/20 12:56:11;;;;;;;1.20;1.10;;;22.30;46.20;;;;;;4975064;28;20220;-80
2023/10/20 12:58:37;;;;;;;1.40;1.30;;;22.30;46.20;;;;;;4969662;28;20424;-80
2023/10/20 13:01:03;;;;;;;1.70;1.33;;;22.30;46.30;;;;;;4972332;28;20220;-81
2023/10/20 13:03:29;;;;;;;1.30;1.20;;;22.30;46.20;;;;;;4970963;28;20255;-81
2023/10/20 13:05:55;;;;;;;1.20;1.10;;;22.30;46.20;;;;;;4971655;28;20628;-81
2023/10/20 13:08:21;;;;;;;1.40;1.30;;;22.30;46.20;;;;;;4962796;28;20984;-78
2023/10/20 13:10:47;;;;;;;1.40;1.30;;;22.30;46.30;;;;;;4965087;28;20472;-81
2023/10/20 13:13:14;;;;;;;1.60;1.50;;;22.30;46.30;;;;;;4965317;28;21007;-80
2023/10/20 13:15:39;;;;;;;1.60;1.50;;;22.30;46.70;;;;;;4945941;28;20507;-80
2023/10/20 13:18:05;;;;;;;1.40;1.30;;;22.30;46.30;;;;;;4963093;28;20558;-79
2023/10/20 13:20:31;;;;;;;1.47;1.37;;;22.30;46.30;;;;;;4958779;28;20228;-80